sensor_id;sensor_type;location;lat;lon;timestamp;pressure;altitude;pressure_sealevel;temperature;humidity
76990;BME280;65924;47.250;11.332;2023-07-09T00:07:13;95455.45;;;22.31;61.15
76990;BME280;65924;47.250;11.332;2023-07-09T00:17:29;95451.32;;;22.23;60.64
76990;BME280;65924;47.250;11.332;2023-07-09T00:27:31;95462.65;;;22.16;61.03
76990;BME280;65924;47.250;11.332;2023-07-09T00:37:31;95472.91;;;22.04;60.53
76990;BME280;65924;47.250;11.332;2023-07-09T00:57:43;95479.20;;;21.91;61.02
76990;BME280;65924;47.250;11.332;2023-07-09T01:07:56;95484.53;;;21.81;61.02
76990;BME280;65924;47.250;11.332;2023-07-09T01:17:58;95491.52;;;21.81;63.77
76990;BME280;65924;47.250;11.332;2023-07-09T01:28:00;95498.30;;;21.75;64.21
76990;BME280;65924;47.250;11.332;2023-07-09T01:38:01;95495.98;;;21.61;65.43
76990;BME280;65924;47.250;11.332;2023-07-09T01:48:03;95498.90;;;21.55;65.66
76990;BME280;65924;47.250;11.332;2023-07-09T01:58:04;95491.86;;;21.54;64.81
76990;BME280;65924;47.250;11.332;2023-07-09T02:08:07;95498.02;;;21.46;64.62
76990;BME280;65924;47.250;11.332;2023-07-09T02:18:07;95503.51;;;21.39;65.94
76990;BME280;65924;47.250;11.332;2023-07-09T02:28:09;95506.34;;;21.34;66.56
76990;BME280;65924;47.250;11.332;2023-07-09T02:38:10;95510.19;;;21.36;66.31
76990;BME280;65924;47.250;11.332;2023-07-09T02:48:10;95524.55;;;21.36;66.61
76990;BME280;65924;47.250;11.332;2023-07-09T02:58:13;95527.37;;;21.30;66.79
76990;BME280;65924;47.250;11.332;2023-07-09T03:08:14;95536.08;;;21.15;66.56
76990;BME280;65924;47.250;11.332;2023-07-09T03:18:15;95543.42;;;20.93;66.28
76990;BME280;65924;47.250;11.332;2023-07-09T03:28:16;95548.57;;;20.81;66.71
76990;BME280;65924;47.250;11.332;2023-07-09T03:38:17;95552.22;;;20.73;66.65
76990;BME280;65924;47.250;11.332;2023-07-09T03:48:19;95563.32;;;20.59;67.00
76990;BME280;65924;47.250;11.332;2023-07-09T03:58:20;95567.89;;;20.47;67.35
76990;BME280;65924;47.250;11.332;2023-07-09T04:08:20;95574.34;;;20.40;68.62
76990;BME280;65924;47.250;11.332;2023-07-09T04:18:21;95575.29;;;20.36;69.24
76990;BME280;65924;47.250;11.332;2023-07-09T04:28:21;95581.61;;;20.34;68.74
76990;BME280;65924;47.250;11.332;2023-07-09T04:38:22;95584.64;;;20.35;69.31
76990;BME280;65924;47.250;11.332;2023-07-09T04:48:23;95593.27;;;20.37;69.81
76990;BME280;65924;47.250;11.332;2023-07-09T04:58:23;95594.08;;;20.39;69.69
76990;BME280;65924;47.250;11.332;2023-07-09T05:08:24;95591.52;;;20.41;69.83
76990;BME280;65924;47.250;11.332;2023-07-09T05:18:25;95597.16;;;20.48;70.95
76990;BME280;65924;47.250;11.332;2023-07-09T05:28:26;95594.63;;;20.54;71.22
76990;BME280;65924;47.250;11.332;2023-07-09T05:38:27;95599.26;;;20.65;71.55
76990;BME280;65924;47.250;11.332;2023-07-09T05:48:28;95595.52;;;20.76;72.04
76990;BME280;65924;47.250;11.332;2023-07-09T05:58:28;95595.52;;;20.87;72.05
76990;BME280;65924;47.250;11.332;2023-07-09T06:08:29;95591.98;;;20.95;72.24
76990;BME280;65924;47.250;11.332;2023-07-09T06:18:31;95591.11;;;21.10;72.12
76990;BME280;65924;47.250;11.332;2023-07-09T06:28:32;95591.11;;;21.27;71.45
76990;BME280;65924;47.250;11.332;2023-07-09T06:38:32;95587.89;;;21.45;67.93
76990;BME280;65924;47.250;11.332;2023-07-09T06:48:33;95582.61;;;21.66;68.33
76990;BME280;65924;47.250;11.332;2023-07-09T06:58:36;95588.70;;;21.90;67.08
76990;BME280;65924;47.250;11.332;2023-07-09T07:08:37;95581.88;;;22.13;65.31
76990;BME280;65924;47.250;11.332;2023-07-09T07:18:38;95568.27;;;22.35;64.80
76990;BME280;65924;47.250;11.332;2023-07-09T07:28:39;95556.70;;;22.58;63.94
76990;BME280;65924;47.250;11.332;2023-07-09T07:38:39;95541.95;;;22.82;62.96
76990;BME280;65924;47.250;11.332;2023-07-09T07:48:40;95526.06;;;23.04;61.74
76990;BME280;65924;47.250;11.332;2023-07-09T07:58:40;95518.34;;;23.28;61.26
76990;BME280;65924;47.250;11.332;2023-07-09T08:08:41;95508.08;;;23.56;61.35
76990;BME280;65924;47.250;11.332;2023-07-09T08:18:42;95490.30;;;23.81;64.70
76990;BME280;65924;47.250;11.332;2023-07-09T08:28:42;95481.05;;;24.06;64.61
76990;BME280;65924;47.250;11.332;2023-07-09T08:38:44;95465.89;;;24.33;67.58
76990;BME280;65924;47.250;11.332;2023-07-09T08:48:47;95459.31;;;24.56;66.78
76990;BME280;65924;47.250;11.332;2023-07-09T08:58:49;95452.09;;;24.88;66.02
76990;BME280;65924;47.250;11.332;2023-07-09T09:19:03;95430.54;;;25.56;64.13
76990;BME280;65924;47.250;11.332;2023-07-09T09:29:15;95424.02;;;25.91;63.00
76990;BME280;65924;47.250;11.332;2023-07-09T09:39:17;95411.94;;;26.28;62.32
76990;BME280;65924;47.250;11.332;2023-07-09T09:49:18;95395.55;;;26.65;62.37
76990;BME280;65924;47.250;11.332;2023-07-09T09:59:21;95389.89;;;27.02;60.73
76990;BME280;65924;47.250;11.332;2023-07-09T10:09:47;95388.55;;;27.26;61.91
76990;BME280;65924;47.250;11.332;2023-07-09T10:40:37;95358.05;;;28.12;58.47
76990;BME280;65924;47.250;11.332;2023-07-09T10:50:45;95355.25;;;28.36;56.87
76990;BME280;65924;47.250;11.332;2023-07-09T11:00:48;95342.15;;;28.55;55.76
76990;BME280;65924;47.250;11.332;2023-07-09T11:11:01;95332.41;;;28.77;52.97
76990;BME280;65924;47.250;11.332;2023-07-09T11:21:08;95310.98;;;29.00;52.00
76990;BME280;65924;47.250;11.332;2023-07-09T11:31:21;95306.12;;;29.30;49.85
76990;BME280;65924;47.250;11.332;2023-07-09T11:41:39;95294.04;;;29.61;50.18
76990;BME280;65924;47.250;11.332;2023-07-09T11:51:46;95281.95;;;29.91;48.58
76990;BME280;65924;47.250;11.332;2023-07-09T12:01:52;95269.47;;;30.24;46.87
76990;BME280;65924;47.250;11.332;2023-07-09T12:11:55;95257.92;;;30.49;48.51
76990;BME280;65924;47.250;11.332;2023-07-09T12:21:57;95236.70;;;30.63;45.65
76990;BME280;65924;47.250;11.332;2023-07-09T12:32:02;95228.14;;;30.76;48.24
76990;BME280;65924;47.250;11.332;2023-07-09T12:42:03;95217.80;;;30.83;49.08
76990;BME280;65924;47.250;11.332;2023-07-09T12:52:12;95204.12;;;30.87;46.29
76990;BME280;65924;47.250;11.332;2023-07-09T13:02:25;95189.98;;;30.99;44.65
76990;BME280;65924;47.250;11.332;2023-07-09T13:12:32;95184.98;;;31.09;46.78
76990;BME280;65924;47.250;11.332;2023-07-09T13:22:33;95176.16;;;31.17;46.86
76990;BME280;65924;47.250;11.332;2023-07-09T13:32:33;95171.34;;;31.29;44.42
76990;BME280;65924;47.250;11.332;2023-07-09T13:42:37;95162.58;;;31.41;43.30
76990;BME280;65924;47.250;11.332;2023-07-09T13:52:38;95156.29;;;31.48;48.18
76990;BME280;65924;47.250;11.332;2023-07-09T14:02:39;95152.90;;;31.51;47.48
76990;BME280;65924;47.250;11.332;2023-07-09T14:12:43;95145.30;;;31.56;45.25
76990;BME280;65924;47.250;11.332;2023-07-09T14:22:44;95141.83;;;31.64;43.82
76990;BME280;65924;47.250;11.332;2023-07-09T14:32:46;95136.13;;;31.67;44.96
76990;BME280;65924;47.250;11.332;2023-07-09T14:42:49;95127.27;;;31.63;46.07
76990;BME280;65924;47.250;11.332;2023-07-09T14:52:50;95117.95;;;31.60;45.36
76990;BME280;65924;47.250;11.332;2023-07-09T15:02:52;95114.42;;;31.56;50.61
76990;BME280;65924;47.250;11.332;2023-07-09T15:12:54;95111.27;;;31.40;54.38
76990;BME280;65924;47.250;11.332;2023-07-09T15:22:56;95113.11;;;31.20;53.59
76990;BME280;65924;47.250;11.332;2023-07-09T15:33:00;95109.22;;;31.00;51.33
76990;BME280;65924;47.250;11.332;2023-07-09T15:43:05;95105.20;;;30.82;46.24
76990;BME280;65924;47.250;11.332;2023-07-09T15:53:09;95100.41;;;30.70;48.14
76990;BME280;65924;47.250;11.332;2023-07-09T16:03:10;95091.84;;;30.67;45.95
76990;BME280;65924;47.250;11.332;2023-07-09T16:13:18;95085.98;;;30.63;46.77
76990;BME280;65924;47.250;11.332;2023-07-09T16:23:21;95091.17;;;30.42;47.15
76990;BME280;65924;47.250;11.332;2023-07-09T16:33:25;95098.21;;;30.14;49.54
76990;BME280;65924;47.250;11.332;2023-07-09T16:43:25;95102.17;;;29.88;49.60
76990;BME280;65924;47.250;11.332;2023-07-09T16:53:26;95104.98;;;29.71;49.10
76990;BME280;65924;47.250;11.332;2023-07-09T17:03:26;95114.60;;;29.54;47.88
76990;BME280;65924;47.250;11.332;2023-07-09T17:13:28;95122.31;;;29.47;49.26
76990;BME280;65924;47.250;11.332;2023-07-09T17:23:29;95124.02;;;29.35;49.16
76990;BME280;65924;47.250;11.332;2023-07-09T17:33:30;95134.67;;;29.17;48.59
76990;BME280;65924;47.250;11.332;2023-07-09T17:43:34;95135.84;;;28.97;48.67
76990;BME280;65924;47.250;11.332;2023-07-09T17:53:36;95146.12;;;28.83;49.95
76990;BME280;65924;47.250;11.332;2023-07-09T18:03:37;95159.60;;;28.79;50.62
76990;BME280;65924;47.250;11.332;2023-07-09T18:13:38;95171.84;;;28.81;52.27
76990;BME280;65924;47.250;11.332;2023-07-09T18:23:38;95182.42;;;28.78;52.02
76990;BME280;65924;47.250;11.332;2023-07-09T18:33:39;95195.70;;;28.76;54.12
76990;BME280;65924;47.250;11.332;2023-07-09T18:43:40;95205.50;;;28.68;50.61
76990;BME280;65924;47.250;11.332;2023-07-09T18:53:43;95211.63;;;28.60;50.40
76990;BME280;65924;47.250;11.332;2023-07-09T19:03:44;95221.73;;;28.50;47.99
76990;BME280;65924;47.250;11.332;2023-07-09T19:13:46;95229.58;;;28.42;48.90
76990;BME280;65924;47.250;11.332;2023-07-09T19:23:46;95234.39;;;28.32;47.92
76990;BME280;65924;47.250;11.332;2023-07-09T19:33:48;95242.83;;;28.17;49.51
76990;BME280;65924;47.250;11.332;2023-07-09T19:43:49;95252.13;;;28.00;49.44
76990;BME280;65924;47.250;11.332;2023-07-09T19:53:50;95264.69;;;27.90;55.03
76990;BME280;65924;47.250;11.332;2023-07-09T20:03:51;95271.15;;;27.69;51.37
76990;BME280;65924;47.250;11.332;2023-07-09T20:13:51;95278.83;;;27.40;48.48
76990;BME280;65924;47.250;11.332;2023-07-09T20:23:53;95282.15;;;27.00;47.59
76990;BME280;65924;47.250;11.332;2023-07-09T20:34:20;95289.03;;;26.77;49.66
76990;BME280;65924;47.250;11.332;2023-07-09T20:44:30;95298.77;;;26.62;49.50
76990;BME280;65924;47.250;11.332;2023-07-09T20:54:32;95309.13;;;26.57;52.06
76990;BME280;65924;47.250;11.332;2023-07-09T21:04:33;95314.08;;;26.45;49.04
76990;BME280;65924;47.250;11.332;2023-07-09T21:14:34;95318.10;;;26.31;50.62
76990;BME280;65924;47.250;11.332;2023-07-09T21:24:36;95328.39;;;26.27;52.72
76990;BME280;65924;47.250;11.332;2023-07-09T21:34:37;95333.89;;;26.20;50.95
76990;BME280;65924;47.250;11.332;2023-07-09T21:44:40;95350.64;;;26.11;52.01
76990;BME280;65924;47.250;11.332;2023-07-09T21:54:41;95367.70;;;25.88;50.86
76990;BME280;65924;47.250;11.332;2023-07-09T22:04:47;95379.56;;;25.75;51.60
76990;BME280;65924;47.250;11.332;2023-07-09T22:14:53;95390.73;;;25.64;54.06
76990;BME280;65924;47.250;11.332;2023-07-09T22:24:55;95393.06;;;25.51;51.73
76990;BME280;65924;47.250;11.332;2023-07-09T22:34:59;95400.96;;;25.31;52.34
76990;BME280;65924;47.250;11.332;2023-07-09T22:45:03;95408.00;;;25.19;52.60
76990;BME280;65924;47.250;11.332;2023-07-09T23:05:27;95421.21;;;25.04;52.76
76990;BME280;65924;47.250;11.332;2023-07-09T23:15:28;95431.89;;;25.00;53.48
76990;BME280;65924;47.250;11.332;2023-07-09T23:25:31;95433.17;;;24.95;52.58
76990;BME280;65924;47.250;11.332;2023-07-09T23:35:32;95435.29;;;24.77;52.56
76990;BME280;65924;47.250;11.332;2023-07-09T23:45:33;95439.89;;;24.59;54.50
76990;BME280;65924;47.250;11.332;2023-07-09T23:55:34;95440.83;;;24.39;55.71
